Time;durP1;ratioP1;P1;durP2;ratioP2;P2;SDS_P1;SDS_P2;PMS_P1;PMS_P2;Temp;Humidity;BMP_temperature;BMP_pressure;BME280_temperature;BME280_humidity;BME280_pressure;Samples;Min_cycle;Max_cycle;Signal;HPM_P1;HPM_P2
2023/12/15 00:00:18;;;;;;;1.00;1.00;;;5.00;99.90;;;;;;5074379;28;20037;-71
2023/12/15 00:02:45;;;;;;;2.00;1.55;;;5.00;99.90;;;;;;5074472;28;20044;-70
2023/12/15 00:05:11;;;;;;;10.85;2.97;;;5.00;99.90;;;;;;5074676;28;20033;-70
2023/12/15 00:07:36;;;;;;;1.48;1.38;;;5.10;99.90;;;;;;5074322;28;20063;-71
2023/12/15 00:10:02;;;;;;;0.90;0.90;;;5.10;99.90;;;;;;5074263;28;20037;-70
2023/12/15 00:12:28;;;;;;;1.48;1.38;;;5.10;99.90;;;;;;5074222;28;20091;-70
2023/12/15 00:14:53;;;;;;;1.23;1.13;;;5.10;99.90;;;;;;5074602;28;20062;-71
2023/12/15 00:17:19;;;;;;;1.02;1.00;;;5.10;99.90;;;;;;5073875;28;20384;-71
2023/12/15 00:19:44;;;;;;;1.10;1.00;;;5.90;99.90;;;;;;5073989;28;20036;-70
2023/12/15 00:22:10;;;;;;;1.05;1.00;;;5.10;99.90;;;;;;5074056;28;20377;-70
2023/12/15 00:24:35;;;;;;;0.90;0.90;;;5.20;99.90;;;;;;5074185;28;20045;-71
2023/12/15 00:27:01;;;;;;;0.80;0.80;;;5.10;99.90;;;;;;5073626;28;20119;-71
2023/12/15 00:29:27;;;;;;;1.00;1.00;;;5.20;99.90;;;;;;5074028;28;20040;-71
2023/12/15 00:31:52;;;;;;;0.90;0.90;;;5.20;99.90;;;;;;5087105;28;20121;-70
2023/12/15 00:34:18;;;;;;;1.30;1.20;;;5.20;99.90;;;;;;5093014;28;20123;-70
2023/12/15 00:36:44;;;;;;;0.80;0.80;;;5.20;99.90;;;;;;5094206;28;20039;-71
2023/12/15 00:39:09;;;;;;;1.55;1.45;;;5.20;99.90;;;;;;5094044;28;20417;-70
2023/12/15 00:41:35;;;;;;;0.90;0.90;;;5.20;99.90;;;;;;5093484;28;20040;-70
2023/12/15 00:44:03;;;;;;;1.00;1.00;;;5.20;99.90;;;;;;5094480;28;20040;-71
2023/12/15 00:46:29;;;;;;;1.10;1.08;;;5.20;99.90;;;;;;5093943;28;20086;-70
2023/12/15 00:48:54;;;;;;;0.90;0.90;;;5.20;99.90;;;;;;5093986;28;20468;-70
2023/12/15 00:51:20;;;;;;;0.90;0.90;;;5.20;99.90;;;;;;5092895;28;20476;-71
2023/12/15 00:53:46;;;;;;;0.90;0.90;;;5.20;99.90;;;;;;5093970;28;20040;-71
2023/12/15 00:56:11;;;;;;;0.90;0.90;;;5.20;99.90;;;;;;5093847;28;20076;-71
2023/12/15 00:58:37;;;;;;;1.13;1.08;;;5.20;99.90;;;;;;5093684;28;20135;-70
2023/12/15 01:01:03;;;;;;;0.88;0.88;;;5.20;99.90;;;;;;5093859;28;20047;-70
2023/12/15 01:03:30;;;;;;;0.90;0.90;;;5.30;99.90;;;;;;5093572;28;20040;-71
2023/12/15 01:05:56;;;;;;;1.00;1.00;;;5.30;99.90;;;;;;5093745;28;20040;-70
2023/12/15 01:08:22;;;;;;;1.05;0.95;;;5.30;99.90;;;;;;5093823;28;20459;-70
2023/12/15 01:10:47;;;;;;;1.30;1.20;;;5.30;99.90;;;;;;5093635;28;20062;-70
2023/12/15 01:13:13;;;;;;;0.90;0.90;;;5.30;99.90;;;;;;5093701;28;20044;-70
2023/12/15 01:15:39;;;;;;;0.82;0.82;;;5.30;99.90;;;;;;5093438;28;20036;-71
2023/12/15 01:18:04;;;;;;;1.10;1.00;;;5.30;99.90;;;;;;5094034;28;20044;-70
2023/12/15 01:20:30;;;;;;;0.88;0.88;;;5.40;99.90;;;;;;5093888;28;20036;-70
2023/12/15 01:22:56;;;;;;;0.90;0.90;;;5.40;99.90;;;;;;5093601;28;20051;-71
2023/12/15 01:25:21;;;;;;;0.90;0.90;;;5.40;99.90;;;;;;5093488;28;20094;-71
2023/12/15 01:27:47;;;;;;;1.45;1.35;;;5.60;99.90;;;;;;5093671;28;20456;-71
2023/12/15 01:30:12;;;;;;;0.90;0.90;;;5.40;99.90;;;;;;5093218;28;20039;-71
2023/12/15 01:32:38;;;;;;;1.30;1.20;;;5.40;99.90;;;;;;5093605;28;20127;-70
2023/12/15 01:35:05;;;;;;;1.33;1.23;;;5.40;99.90;;;;;;5093780;28;20047;-71
2023/12/15 01:37:31;;;;;;;5.35;4.22;;;5.40;99.90;;;;;;5093522;28;20071;-71
2023/12/15 01:39:56;;;;;;;1.00;1.00;;;5.50;99.90;;;;;;5093319;28;20091;-71
2023/12/15 01:42:22;;;;;;;0.90;0.90;;;5.50;99.90;;;;;;5093366;28;20040;-70
2023/12/15 01:44:47;;;;;;;0.90;0.90;;;5.50;99.90;;;;;;5093360;28;20036;-71
2023/12/15 01:47:17;;;;;;;1.20;1.10;;;6.10;99.90;;;;;;5093257;28;20079;-70
2023/12/15 01:49:43;;;;;;;0.90;0.90;;;5.50;99.90;;;;;;5093382;28;20044;-71
2023/12/15 01:52:09;;;;;;;0.90;0.90;;;5.60;99.90;;;;;;5093543;28;20403;-71
2023/12/15 01:54:34;;;;;;;0.90;0.90;;;5.70;99.90;;;;;;5093279;28;20040;-70
2023/12/15 01:57:00;;;;;;;2.30;2.13;;;5.60;99.90;;;;;;5093015;28;20032;-71
2023/12/15 01:59:26;;;;;;;0.80;0.80;;;5.60;99.90;;;;;;5093008;28;20036;-70
2023/12/15 02:01:51;;;;;;;0.98;0.98;;;5.60;99.90;;;;;;5094342;28;20142;-70
2023/12/15 02:04:17;;;;;;;0.90;0.90;;;5.60;99.90;;;;;;5097064;28;20456;-70
2023/12/15 02:06:42;;;;;;;1.30;1.20;;;5.60;99.90;;;;;;5097027;28;20047;-70
2023/12/15 02:09:08;;;;;;;0.82;0.82;;;5.60;99.90;;;;;;5096853;28;20052;-70
2023/12/15 02:11:34;;;;;;;1.08;1.00;;;5.60;99.90;;;;;;5096804;28;20039;-71
2023/12/15 02:13:59;;;;;;;0.93;0.93;;;5.70;99.90;;;;;;5096779;28;20035;-70
2023/12/15 02:16:25;;;;;;;1.52;1.42;;;6.00;99.90;;;;;;5096489;28;20050;-70
2023/12/15 02:18:50;;;;;;;2.40;1.80;;;5.70;99.90;;;;;;5096760;28;20123;-70
2023/12/15 02:21:16;;;;;;;1.10;1.00;;;5.70;99.90;;;;;;5096139;28;20040;-71
2023/12/15 02:23:41;;;;;;;1.15;1.08;;;5.70;99.90;;;;;;5096577;28;20464;-71
2023/12/15 02:26:07;;;;;;;1.20;1.10;;;5.70;99.90;;;;;;5096493;28;20051;-71
2023/12/15 02:28:33;;;;;;;1.13;1.02;;;5.80;99.90;;;;;;5096557;28;20040;-70
2023/12/15 02:30:58;;;;;;;1.20;1.10;;;5.70;99.90;;;;;;5096549;28;20126;-70
2023/12/15 02:33:24;;;;;;;0.80;0.80;;;5.80;99.90;;;;;;5096684;28;20039;-71
2023/12/15 02:35:50;;;;;;;1.30;1.20;;;5.80;99.90;;;;;;5096188;28;20101;-70
2023/12/15 02:38:18;;;;;;;0.90;0.90;;;5.80;99.90;;;;;;5096428;28;20087;-71
2023/12/15 02:40:44;;;;;;;1.25;1.15;;;5.80;99.90;;;;;;5095862;28;20302;-71
2023/12/15 02:43:10;;;;;;;0.93;0.93;;;5.80;99.90;;;;;;5096194;28;20483;-70
2023/12/15 02:45:37;;;;;;;0.90;0.90;;;5.80;99.90;;;;;;5096522;28;20418;-71
2023/12/15 02:48:03;;;;;;;1.33;1.23;;;5.80;99.90;;;;;;5096191;28;20040;-70
2023/12/15 02:50:28;;;;;;;1.20;1.10;;;5.80;99.90;;;;;;5095967;28;20464;-70
2023/12/15 02:52:54;;;;;;;0.90;0.90;;;5.80;99.90;;;;;;5096177;28;20047;-71
2023/12/15 02:55:20;;;;;;;1.10;1.05;;;5.80;99.90;;;;;;5095957;28;20500;-70
2023/12/15 02:57:45;;;;;;;2.78;1.10;;;5.90;99.90;;;;;;5096006;28;20046;-71
2023/12/15 03:00:11;;;;;;;2.03;1.38;;;5.90;99.90;;;;;;5096204;28;20028;-70
2023/12/15 03:02:39;;;;;;;1.55;1.45;;;5.90;99.90;;;;;;5095973;28;20036;-71
2023/12/15 03:05:05;;;;;;;0.90;0.90;;;5.90;99.90;;;;;;5095846;28;20050;-70
2023/12/15 03:07:31;;;;;;;0.90;0.90;;;5.90;99.90;;;;;;5095897;28;20036;-71
2023/12/15 03:09:57;;;;;;;1.00;0.90;;;5.90;99.90;;;;;;5095656;28;20047;-70
2023/12/15 03:12:22;;;;;;;0.80;0.80;;;6.70;99.90;;;;;;5095685;28;20046;-71
2023/12/15 03:14:48;;;;;;;1.10;1.00;;;5.90;99.90;;;;;;5094676;28;20085;-71
2023/12/15 03:17:16;;;;;;;1.20;1.10;;;6.00;99.90;;;;;;5095579;28;20052;-70
2023/12/15 03:19:42;;;;;;;1.20;1.10;;;6.00;99.90;;;;;;5094620;28;20421;-71
2023/12/15 03:22:07;;;;;;;0.90;0.90;;;6.00;99.90;;;;;;5095524;28;20104;-70
2023/12/15 03:24:33;;;;;;;1.42;1.38;;;6.00;99.90;;;;;;5095080;28;20040;-70
2023/12/15 03:26:58;;;;;;;1.20;1.10;;;6.00;99.90;;;;;;5095890;28;20039;-70
2023/12/15 03:29:24;;;;;;;0.80;0.80;;;6.00;99.90;;;;;;5095289;28;20487;-71
2023/12/15 03:31:50;;;;;;;1.00;1.00;;;6.00;99.90;;;;;;5094973;28;20546;-70
2023/12/15 03:34:15;;;;;;;1.10;1.00;;;6.50;99.90;;;;;;5095102;28;20043;-70
2023/12/15 03:36:41;;;;;;;0.90;0.90;;;6.10;99.90;;;;;;5095168;28;20051;-70
2023/12/15 03:39:08;;;;;;;0.93;0.93;;;6.10;99.90;;;;;;5094938;28;20036;-71
2023/12/15 03:41:34;;;;;;;0.90;0.90;;;6.10;99.90;;;;;;5094988;28;20036;-70
2023/12/15 03:43:59;;;;;;;1.02;1.00;;;6.10;99.90;;;;;;5094992;28;20361;-71
2023/12/15 03:46:25;;;;;;;2.28;2.08;;;6.10;99.90;;;;;;5095055;28;20032;-70
2023/12/15 03:48:51;;;;;;;1.80;1.70;;;6.10;99.90;;;;;;5095202;28;20039;-71
2023/12/15 03:51:16;;;;;;;0.90;0.90;;;6.20;99.90;;;;;;5094940;28;20035;-70
2023/12/15 03:53:43;;;;;;;21.48;3.80;;;6.20;99.90;;;;;;5094395;28;20085;-70
2023/12/15 03:56:09;;;;;;;1.52;1.42;;;6.20;99.90;;;;;;5094826;28;20075;-70
2023/12/15 03:58:34;;;;;;;0.98;0.98;;;6.20;99.90;;;;;;5094763;28;20040;-70
2023/12/15 04:01:00;;;;;;;0.77;0.77;;;6.20;99.90;;;;;;5094957;28;20032;-70
2023/12/15 04:03:26;;;;;;;0.90;0.90;;;6.20;99.90;;;;;;5094714;28;20044;-70
2023/12/15 04:05:52;;;;;;;1.10;1.00;;;6.40;99.90;;;;;;5094633;28;20040;-70
2023/12/15 04:08:17;;;;;;;1.42;1.33;;;6.30;99.90;;;;;;5094770;28;20043;-70
2023/12/15 04:10:43;;;;;;;1.80;1.70;;;6.30;99.90;;;;;;5094269;28;20039;-70
2023/12/15 04:13:09;;;;;;;1.27;1.17;;;6.30;99.90;;;;;;5094617;28;20051;-70
2023/12/15 04:15:34;;;;;;;3.00;1.65;;;6.60;99.90;;;;;;5094463;28;20497;-71
2023/12/15 04:18:04;;;;;;;1.65;1.55;;;6.30;99.90;;;;;;5094481;28;20059;-70
2023/12/15 04:20:30;;;;;;;1.20;1.10;;;6.30;99.90;;;;;;5094048;28;20040;-70
2023/12/15 04:22:56;;;;;;;2.08;1.60;;;6.30;99.90;;;;;;5094298;28;20043;-71
2023/12/15 04:25:21;;;;;;;1.45;1.35;;;6.30;99.90;;;;;;5093834;28;20036;-70
2023/12/15 04:27:48;;;;;;;1.33;1.23;;;6.30;99.90;;;;;;5094672;28;20040;-71
2023/12/15 04:30:13;;;;;;;0.95;0.95;;;6.30;99.90;;;;;;5094176;28;20031;-70
2023/12/15 04:32:39;;;;;;;0.90;0.90;;;7.10;99.90;;;;;;5094337;28;20320;-70
2023/12/15 04:35:06;;;;;;;1.20;1.10;;;6.40;99.90;;;;;;5094328;28;20035;-71
2023/12/15 04:37:31;;;;;;;1.45;1.35;;;6.30;99.90;;;;;;5094057;28;20038;-71
2023/12/15 04:39:57;;;;;;;1.00;1.00;;;6.40;99.90;;;;;;5093934;28;20123;-71
2023/12/15 04:42:22;;;;;;;0.90;0.90;;;6.40;99.90;;;;;;5094092;28;20047;-71
2023/12/15 04:44:48;;;;;;;1.00;1.00;;;6.40;99.90;;;;;;5094451;28;20044;-70
2023/12/15 04:47:13;;;;;;;1.50;1.40;;;6.40;99.90;;;;;;5093919;28;20448;-71
2023/12/15 04:49:39;;;;;;;1.50;1.40;;;6.40;99.90;;;;;;5093935;28;20035;-70
2023/12/15 04:52:05;;;;;;;0.80;0.80;;;6.40;99.90;;;;;;5094026;28;20036;-70
2023/12/15 04:54:31;;;;;;;1.10;1.00;;;7.10;99.90;;;;;;5093841;28;20075;-70
2023/12/15 04:56:56;;;;;;;0.90;0.90;;;6.40;99.90;;;;;;5094007;28;20502;-70
2023/12/15 04:59:22;;;;;;;1.48;1.10;;;7.20;99.90;;;;;;5093884;28;20089;-70
2023/12/15 05:01:47;;;;;;;0.90;0.90;;;6.40;99.90;;;;;;5094046;28;20032;-70
2023/12/15 05:04:13;;;;;;;7.32;2.00;;;7.20;99.90;;;;;;5093852;28;20464;-71
2023/12/15 05:06:39;;;;;;;1.05;1.05;;;6.40;99.90;;;;;;5093600;28;20044;-71
2023/12/15 05:09:04;;;;;;;2.00;1.90;;;6.50;99.90;;;;;;5093701;28;20418;-71
2023/12/15 05:11:34;;;;;;;1.40;1.30;;;7.40;99.90;;;;;;5093846;28;20032;-71
2023/12/15 05:14:00;;;;;;;1.50;1.40;;;6.60;99.90;;;;;;5093763;28;20114;-71
2023/12/15 05:16:25;;;;;;;2.35;2.15;;;6.50;99.90;;;;;;5093446;28;20036;-71
2023/12/15 05:18:51;;;;;;;1.92;1.65;;;6.50;99.90;;;;;;5093738;28;20051;-70
2023/12/15 05:21:17;;;;;;;1.58;1.48;;;6.50;99.90;;;;;;5093633;28;20039;-70
2023/12/15 05:23:43;;;;;;;3.38;2.17;;;6.60;99.90;;;;;;5093619;28;20488;-70
2023/12/15 05:26:11;;;;;;;1.40;1.30;;;6.50;99.90;;;;;;5093578;28;20124;-70
2023/12/15 05:28:36;;;;;;;3.53;2.13;;;6.50;99.90;;;;;;5093559;28;20043;-70
2023/12/15 05:31:02;;;;;;;0.95;0.93;;;6.50;99.90;;;;;;5093533;28;20458;-71
2023/12/15 05:33:28;;;;;;;1.60;1.50;;;6.60;99.90;;;;;;5093568;28;20052;-71
2023/12/15 05:35:53;;;;;;;1.00;1.00;;;6.60;99.90;;;;;;5093608;28;20036;-70
2023/12/15 05:38:19;;;;;;;1.83;1.70;;;6.60;99.90;;;;;;5096813;28;20036;-71
2023/12/15 05:40:44;;;;;;;2.47;1.70;;;6.60;99.90;;;;;;5097149;28;20468;-71
2023/12/15 05:43:11;;;;;;;1.48;1.38;;;6.60;99.90;;;;;;5097461;28;20082;-71
2023/12/15 05:45:36;;;;;;;0.95;0.95;;;6.60;99.90;;;;;;5097303;28;20383;-73
2023/12/15 05:48:02;;;;;;;1.20;1.10;;;6.60;99.90;;;;;;5097413;28;20044;-71
2023/12/15 05:50:27;;;;;;;2.45;1.88;;;6.60;99.90;;;;;;5097278;28;20348;-71
2023/12/15 05:52:53;;;;;;;1.25;1.20;;;6.60;99.90;;;;;;5097243;28;20460;-70
2023/12/15 05:55:19;;;;;;;0.80;0.80;;;6.60;99.90;;;;;;5096957;28;20055;-70
2023/12/15 05:57:45;;;;;;;1.52;1.42;;;6.60;99.90;;;;;;5097146;28;20376;-70
2023/12/15 06:00:11;;;;;;;1.27;1.17;;;6.60;99.90;;;;;;5097055;28;20043;-70
2023/12/15 06:02:37;;;;;;;0.87;0.87;;;6.70;99.90;;;;;;5097284;28;20115;-70
2023/12/15 06:05:02;;;;;;;6.38;1.92;;;6.60;99.90;;;;;;5096985;28;20578;-70
2023/12/15 06:07:31;;;;;;;1.27;1.17;;;6.60;99.90;;;;;;5096956;28;20491;-71
2023/12/15 06:09:56;;;;;;;0.90;0.90;;;6.60;99.90;;;;;;5097306;28;20060;-71
2023/12/15 06:12:22;;;;;;;0.80;0.80;;;6.70;99.90;;;;;;5096922;28;20032;-74
2023/12/15 06:14:47;;;;;;;1.30;1.20;;;7.40;99.90;;;;;;5095487;28;20071;-71
2023/12/15 06:17:13;;;;;;;1.20;1.10;;;6.80;99.90;;;;;;5096966;28;20048;-71
2023/12/15 06:19:42;;;;;;;1.17;1.08;;;6.70;99.90;;;;;;5096459;28;20040;-71
2023/12/15 06:22:08;;;;;;;0.80;0.80;;;6.70;99.90;;;;;;5096635;28;20032;-71
2023/12/15 06:24:33;;;;;;;1.85;1.75;;;6.70;99.90;;;;;;5096436;28;20048;-70
2023/12/15 06:26:59;;;;;;;6.25;3.70;;;6.70;99.90;;;;;;5096566;28;20063;-70
2023/12/15 06:29:24;;;;;;;1.20;1.10;;;6.70;99.90;;;;;;5096889;28;20043;-70
2023/12/15 06:31:50;;;;;;;1.00;1.00;;;6.70;99.90;;;;;;5096877;28;20043;-69
2023/12/15 06:34:16;;;;;;;1.40;1.30;;;6.70;99.90;;;;;;5096618;28;20047;-71
2023/12/15 06:36:41;;;;;;;1.35;1.15;;;6.70;99.90;;;;;;5096464;28;20042;-70
2023/12/15 06:39:07;;;;;;;0.90;0.90;;;6.70;99.90;;;;;;5095098;28;20036;-71
2023/12/15 06:41:33;;;;;;;1.90;1.80;;;6.70;99.90;;;;;;5096654;28;20506;-71
2023/12/15 06:43:58;;;;;;;1.00;1.00;;;6.70;99.90;;;;;;5096478;28;20069;-70
2023/12/15 06:46:24;;;;;;;2.53;2.00;;;6.70;99.90;;;;;;5096217;28;20036;-69
2023/12/15 06:48:50;;;;;;;0.80;0.80;;;6.70;99.90;;;;;;5096088;28;20468;-71
2023/12/15 06:51:16;;;;;;;1.20;1.10;;;6.70;99.90;;;;;;5096171;28;20051;-71
2023/12/15 06:53:41;;;;;;;1.23;1.13;;;6.70;99.90;;;;;;5096066;28;20051;-69
2023/12/15 06:56:07;;;;;;;1.02;0.98;;;6.70;99.90;;;;;;5096493;28;20044;-71
2023/12/15 06:58:33;;;;;;;1.67;1.58;;;6.70;99.90;;;;;;5095831;28;20036;-71
2023/12/15 07:00:59;;;;;;;1.48;1.38;;;6.70;99.90;;;;;;5095950;28;20462;-71
2023/12/15 07:03:24;;;;;;;2.85;2.15;;;6.70;99.90;;;;;;5095889;28;20054;-71
2023/12/15 07:05:50;;;;;;;0.80;0.80;;;6.70;99.90;;;;;;5095834;28;20032;-78
2023/12/15 07:08:15;;;;;;;1.60;1.50;;;6.80;99.90;;;;;;5095618;28;20046;-71
2023/12/15 07:10:41;;;;;;;0.80;0.80;;;6.70;99.90;;;;;;5095694;28;20495;-71
2023/12/15 07:13:07;;;;;;;1.25;1.15;;;6.70;99.90;;;;;;5096083;28;20040;-71
2023/12/15 07:15:33;;;;;;;1.10;1.00;;;6.70;99.90;;;;;;5095677;28;20463;-72
2023/12/15 07:17:59;;;;;;;1.77;1.27;;;7.40;99.90;;;;;;5095287;28;20432;-71
2023/12/15 07:20:25;;;;;;;1.63;1.53;;;6.70;99.90;;;;;;5095442;28;20047;-71
2023/12/15 07:22:51;;;;;;;1.10;1.00;;;6.70;99.90;;;;;;5095468;28;20043;-71
2023/12/15 07:25:17;;;;;;;0.80;0.80;;;6.70;99.90;;;;;;5095400;28;20104;-71
2023/12/15 07:27:43;;;;;;;1.27;1.17;;;6.70;99.90;;;;;;5095429;28;20047;-71
2023/12/15 07:30:09;;;;;;;1.08;1.00;;;6.70;99.90;;;;;;5095335;28;20285;-71
2023/12/15 07:32:35;;;;;;;0.90;0.90;;;6.70;99.90;;;;;;5095245;28;20036;-71
2023/12/15 07:35:00;;;;;;;0.90;0.90;;;6.70;99.90;;;;;;5095258;28;20048;-71
2023/12/15 07:37:26;;;;;;;0.80;0.80;;;6.90;99.90;;;;;;5095315;28;20040;-71
2023/12/15 07:39:51;;;;;;;1.90;1.30;;;6.70;99.90;;;;;;5095045;28;20097;-71
2023/12/15 07:42:17;;;;;;;3.53;3.20;;;7.40;99.90;;;;;;5095164;28;20046;-71
2023/12/15 07:44:42;;;;;;;1.30;1.20;;;6.90;99.90;;;;;;5095126;28;20085;-71
2023/12/15 07:47:08;;;;;;;1.20;1.10;;;6.70;99.90;;;;;;5094979;28;20069;-72
2023/12/15 07:49:34;;;;;;;1.73;1.63;;;7.70;99.90;;;;;;5094964;28;20082;-71
2023/12/15 07:52:00;;;;;;;1.25;1.15;;;6.80;99.90;;;;;;5095319;28;20124;-71
2023/12/15 07:54:26;;;;;;;1.30;1.20;;;6.80;99.90;;;;;;5094623;28;20044;-72
2023/12/15 07:56:51;;;;;;;3.15;1.52;;;6.80;99.90;;;;;;5095290;28;20085;-73
2023/12/15 07:59:17;;;;;;;0.90;0.90;;;6.80;99.90;;;;;;5094272;28;20353;-76
2023/12/15 08:01:49;;;;;;;2.45;2.25;;;6.80;99.90;;;;;;5094752;28;20119;-72
2023/12/15 08:04:15;;;;;;;1.42;1.33;;;6.80;99.90;;;;;;5094759;28;20069;-73
2023/12/15 08:06:40;;;;;;;2.20;2.00;;;6.80;99.90;;;;;;5094686;28;20040;-75
2023/12/15 08:09:06;;;;;;;0.90;0.90;;;6.80;99.90;;;;;;5093479;28;20468;-73
2023/12/15 08:11:32;;;;;;;1.70;1.60;;;7.70;99.90;;;;;;5094586;28;20032;-70
2023/12/15 08:13:58;;;;;;;0.90;0.90;;;6.80;99.90;;;;;;5094565;28;20177;-72
2023/12/15 08:16:24;;;;;;;1.10;1.00;;;7.60;99.90;;;;;;5094103;28;20123;-71
2023/12/15 08:18:50;;;;;;;0.80;0.80;;;6.90;99.90;;;;;;5094418;28;20048;-71
2023/12/15 08:21:15;;;;;;;1.02;1.02;;;6.90;99.90;;;;;;5094039;28;20036;-75
2023/12/15 08:23:41;;;;;;;1.25;1.17;;;6.90;99.90;;;;;;5094292;28;20043;-71
2023/12/15 08:26:07;;;;;;;1.38;1.27;;;6.90;99.90;;;;;;5094687;28;20384;-73
2023/12/15 08:28:32;;;;;;;1.00;1.00;;;7.60;99.90;;;;;;5094286;28;20379;-76
2023/12/15 08:30:58;;;;;;;0.93;0.93;;;7.00;99.90;;;;;;5094242;28;20036;-72
2023/12/15 08:33:24;;;;;;;1.65;1.55;;;6.90;99.90;;;;;;5094259;28;20040;-72
2023/12/15 08:35:50;;;;;;;1.20;1.10;;;7.00;99.90;;;;;;5094271;28;20044;-75
2023/12/15 08:38:15;;;;;;;1.48;1.38;;;7.90;99.90;;;;;;5094211;28;20035;-72
2023/12/15 08:40:41;;;;;;;1.40;1.30;;;7.90;99.90;;;;;;5094581;28;20118;-71
2023/12/15 08:43:07;;;;;;;1.75;1.65;;;7.00;99.90;;;;;;5094456;28;20119;-71
2023/12/15 08:45:32;;;;;;;0.80;0.80;;;7.10;99.90;;;;;;5094104;28;20122;-73
2023/12/15 08:47:58;;;;;;;3.70;3.00;;;7.10;99.90;;;;;;5093997;28;20040;-69
2023/12/15 08:50:24;;;;;;;1.17;1.10;;;7.10;99.90;;;;;;5094046;28;20092;-72
2023/12/15 08:52:49;;;;;;;4.10;1.65;;;7.00;99.90;;;;;;5093909;28;20040;-72
2023/12/15 08:55:15;;;;;;;2.53;2.00;;;7.60;99.90;;;;;;5093938;28;20123;-72
2023/12/15 08:57:40;;;;;;;1.08;1.08;;;7.10;99.90;;;;;;5093913;28;20035;-72
2023/12/15 09:00:07;;;;;;;0.85;0.85;;;7.10;99.90;;;;;;5093749;28;20043;-72
2023/12/15 09:02:33;;;;;;;1.48;1.38;;;7.10;99.90;;;;;;5093819;28;20047;-72
2023/12/15 09:05:00;;;;;;;0.90;0.90;;;7.60;99.90;;;;;;5093974;28;20039;-71
2023/12/15 09:07:26;;;;;;;1.85;1.73;;;7.20;99.90;;;;;;5093825;28;20123;-72
2023/12/15 09:09:52;;;;;;;1.20;1.10;;;7.20;99.90;;;;;;5094043;28;20071;-71
2023/12/15 09:12:17;;;;;;;1.90;1.80;;;7.20;99.90;;;;;;5095547;28;20073;-75
2023/12/15 09:14:43;;;;;;;0.88;0.88;;;7.70;99.90;;;;;;5097901;28;20559;-72
2023/12/15 09:17:13;;;;;;;1.05;1.00;;;7.20;99.90;;;;;;5098029;28;20087;-72
2023/12/15 09:19:39;;;;;;;1.35;1.25;;;7.30;99.90;;;;;;5097959;28;20091;-72
2023/12/15 09:22:05;;;;;;;0.85;0.85;;;7.30;99.90;;;;;;5097734;28;20059;-72
2023/12/15 09:24:31;;;;;;;1.65;1.55;;;7.30;99.90;;;;;;5097714;28;20468;-71
2023/12/15 09:26:56;;;;;;;2.25;1.55;;;7.30;99.90;;;;;;5097476;28;20518;-71
2023/12/15 09:29:22;;;;;;;1.30;1.20;;;7.30;99.90;;;;;;5096413;28;20080;-71
2023/12/15 09:31:47;;;;;;;1.13;1.02;;;7.30;99.90;;;;;;5097910;28;20036;-71
2023/12/15 09:34:13;;;;;;;0.80;0.80;;;7.40;99.90;;;;;;5097213;28;20145;-72
2023/12/15 09:36:39;;;;;;;1.40;1.30;;;7.40;99.90;;;;;;5097295;28;20094;-72
2023/12/15 09:39:04;;;;;;;1.65;1.55;;;7.40;99.90;;;;;;5097834;28;20052;-72
2023/12/15 09:41:30;;;;;;;1.00;1.00;;;7.40;99.90;;;;;;5097411;28;20104;-72
2023/12/15 09:43:55;;;;;;;1.05;1.05;;;7.40;99.90;;;;;;5097465;28;20109;-72
2023/12/15 09:46:22;;;;;;;3.72;2.55;;;7.50;99.90;;;;;;5097763;28;20044;-73
2023/12/15 09:48:49;;;;;;;3.70;2.00;;;8.00;99.90;;;;;;5097321;28;20048;-72
2023/12/15 09:51:15;;;;;;;;;;;7.50;99.90;;;;;;5097782;28;20105;-72
2023/12/15 09:53:45;;;;;;;1.38;1.27;;;7.50;99.90;;;;;;5096952;28;20301;-73
2023/12/15 09:56:12;;;;;;;0.90;0.90;;;7.50;99.90;;;;;;5097634;28;20055;-76
2023/12/15 09:58:38;;;;;;;0.82;0.82;;;7.70;99.90;;;;;;5097131;28;20050;-77
2023/12/15 10:01:04;;;;;;;0.98;0.95;;;7.80;99.90;;;;;;5097008;28;20127;-75
2023/12/15 10:03:31;;;;;;;0.90;0.90;;;7.50;99.90;;;;;;5097039;28;20047;-76
2023/12/15 10:05:56;;;;;;;0.80;0.80;;;7.80;99.90;;;;;;5096871;28;20537;-67
2023/12/15 10:08:24;;;;;;;1.27;1.00;;;7.60;99.90;;;;;;5097457;28;20032;-86
2023/12/15 10:10:50;;;;;;;1.40;1.30;;;7.80;99.90;;;;;;5097018;28;20150;-72
2023/12/15 10:13:16;;;;;;;0.90;0.90;;;7.70;99.90;;;;;;5095451;28;20051;-73
2023/12/15 10:15:41;;;;;;;0.90;0.90;;;7.70;99.90;;;;;;5097112;28;20044;-72
2023/12/15 10:18:07;;;;;;;1.20;1.10;;;7.80;99.90;;;;;;5094623;28;20047;-72
2023/12/15 10:20:33;;;;;;;0.73;0.73;;;7.70;99.90;;;;;;5094577;28;20106;-72
2023/12/15 10:23:03;;;;;;;1.00;1.00;;;8.20;99.90;;;;;;5094918;28;20036;-72
2023/12/15 10:25:29;;;;;;;1.20;1.10;;;7.80;99.90;;;;;;5094200;28;20424;-72
2023/12/15 10:27:55;;;;;;;1.03;1.03;;;7.80;99.90;;;;;;5095271;28;20122;-71
2023/12/15 10:30:20;;;;;;;1.80;1.70;;;7.80;99.90;;;;;;5095288;28;20128;-72
2023/12/15 10:32:46;;;;;;;1.20;1.10;;;7.90;99.90;;;;;;5095439;28;20051;-71
2023/12/15 10:35:12;;;;;;;0.90;0.90;;;7.90;99.90;;;;;;5096543;28;20036;-72
2023/12/15 10:37:38;;;;;;;1.10;1.00;;;8.00;99.90;;;;;;5096403;28;20426;-72
2023/12/15 10:40:05;;;;;;;0.80;0.80;;;8.00;99.90;;;;;;5095510;28;20043;-71
2023/12/15 10:42:31;;;;;;;0.80;0.80;;;8.00;99.90;;;;;;5096390;28;20032;-71
2023/12/15 10:44:58;;;;;;;1.33;1.23;;;9.00;99.90;;;;;;5096274;28;20525;-72
2023/12/15 10:47:24;;;;;;;;;;;8.10;99.90;;;;;;5097061;28;20090;-72
2023/12/15 10:49:52;;;;;;;1.23;1.02;;;8.10;99.90;;;;;;5096127;28;19916;-72
2023/12/15 10:52:21;;;;;;;0.80;0.80;;;8.00;99.90;;;;;;5095881;28;20498;-72
2023/12/15 10:54:51;;;;;;;1.77;1.58;;;8.10;99.90;;;;;;5096003;28;20044;-71
2023/12/15 10:57:17;;;;;;;0.80;0.80;;;8.10;99.90;;;;;;5096268;28;20036;-72
2023/12/15 10:59:43;;;;;;;1.10;1.00;;;8.90;99.90;;;;;;5096177;28;20036;-71
2023/12/15 11:02:11;;;;;;;1.55;1.45;;;8.20;99.90;;;;;;5095847;28;20422;-71
2023/12/15 11:04:37;;;;;;;1.20;1.10;;;8.20;99.90;;;;;;5095612;28;20084;-72
2023/12/15 11:07:03;;;;;;;0.80;0.80;;;8.20;99.90;;;;;;5095873;28;20083;-72
2023/12/15 11:09:32;;;;;;;0.82;0.82;;;8.20;99.90;;;;;;5095797;28;20040;-71
2023/12/15 11:12:22;;;;;;;1.00;1.00;;;8.60;99.90;;;;;;5095846;28;20036;-71
2023/12/15 11:15:16;;;;;;;0.80;0.80;;;8.30;99.90;;;;;;5095842;28;20036;-72
2023/12/15 11:17:47;;;;;;;0.98;0.95;;;8.30;99.90;;;;;;5091716;28;20090;-72
2023/12/15 11:20:33;;;;;;;0.80;0.80;;;8.30;99.90;;;;;;5094309;28;20071;-81
2023/12/15 11:23:07;;;;;;;2.50;1.10;;;8.30;99.90;;;;;;5095188;28;20091;-73
2023/12/15 11:25:36;;;;;;;1.23;1.13;;;8.40;99.90;;;;;;5095085;28;20051;-71
2023/12/15 11:28:15;;;;;;;1.00;1.00;;;8.60;99.90;;;;;;5095419;28;20036;-75
2023/12/15 11:30:44;;;;;;;1.20;1.10;;;8.40;99.90;;;;;;5095401;28;20478;-72
2023/12/15 11:33:30;;;;;;;0.90;0.90;;;8.40;99.90;;;;;;5095374;28;20089;-72
2023/12/15 11:36:01;;;;;;;1.23;1.10;;;8.40;99.90;;;;;;5094384;28;20135;-73
2023/12/15 11:38:27;;;;;;;0.90;0.90;;;8.40;99.90;;;;;;5095632;28;20410;-74
2023/12/15 11:40:53;;;;;;;0.80;0.80;;;8.50;99.90;;;;;;5095158;28;20036;-72
2023/12/15 11:43:19;;;;;;;0.80;0.80;;;8.50;99.90;;;;;;5095190;28;20040;-77
2023/12/15 11:45:46;;;;;;;0.80;0.80;;;8.70;99.90;;;;;;5095057;28;20040;-78
2023/12/15 11:48:12;;;;;;;2.05;1.50;;;8.50;99.90;;;;;;5095104;28;20092;-72
2023/12/15 11:50:43;;;;;;;0.98;0.90;;;8.50;99.90;;;;;;5094958;28;20040;-74
2023/12/15 11:53:15;;;;;;;0.80;0.80;;;8.60;99.90;;;;;;5094948;28;20047;-71
2023/12/15 11:55:45;;;;;;;1.10;1.00;;;8.60;99.90;;;;;;5095109;28;20115;-71
2023/12/15 11:58:14;;;;;;;0.70;0.70;;;8.60;99.90;;;;;;5094924;28;20040;-72
2023/12/15 12:00:40;;;;;;;0.93;0.93;;;8.70;99.90;;;;;;5094372;28;20480;-71
2023/12/15 12:03:09;;;;;;;0.80;0.80;;;8.60;99.90;;;;;;5094759;28;20035;-71
2023/12/15 12:05:35;;;;;;;0.80;0.80;;;8.60;99.90;;;;;;5094747;28;20043;-72
2023/12/15 12:08:01;;;;;;;1.23;1.13;;;8.60;99.90;;;;;;5093538;28;20032;-71
2023/12/15 12:10:34;;;;;;;5.40;4.88;;;8.60;99.90;;;;;;5094663;28;20436;-72
2023/12/15 12:13:00;;;;;;;0.80;0.80;;;8.70;99.90;;;;;;5094743;28;20123;-71
2023/12/15 12:15:26;;;;;;;0.70;0.70;;;8.70;99.90;;;;;;5093082;28;20054;-71
2023/12/15 12:17:52;;;;;;;0.70;0.70;;;8.80;99.90;;;;;;5093305;28;20455;-71
2023/12/15 12:20:18;;;;;;;1.15;1.13;;;8.70;99.90;;;;;;5094303;28;20075;-71
2023/12/15 12:22:45;;;;;;;0.70;0.70;;;8.70;99.90;;;;;;5094275;28;20127;-71
2023/12/15 12:25:16;;;;;;;0.80;0.80;;;8.80;99.90;;;;;;5093918;28;20494;-71
2023/12/15 12:27:42;;;;;;;0.70;0.70;;;8.80;99.90;;;;;;5093991;28;20036;-71
2023/12/15 12:30:13;;;;;;;0.80;0.80;;;8.80;99.90;;;;;;5093858;28;20047;-71
2023/12/15 12:32:39;;;;;;;0.77;0.77;;;8.80;99.90;;;;;;5092677;28;20375;-71
2023/12/15 12:35:05;;;;;;;4.78;1.23;;;8.80;99.90;;;;;;5094113;28;20044;-71
2023/12/15 12:37:31;;;;;;;0.80;0.80;;;8.70;99.90;;;;;;5094057;28;20040;-71
2023/12/15 12:39:58;;;;;;;1.70;0.93;;;8.70;99.90;;;;;;5092920;28;20518;-71
2023/12/15 12:42:24;;;;;;;0.90;0.90;;;8.70;99.90;;;;;;5094027;28;20043;-72
2023/12/15 12:44:52;;;;;;;0.80;0.80;;;9.10;99.90;;;;;;5093558;28;20039;-72
2023/12/15 12:47:18;;;;;;;0.77;0.77;;;8.60;99.90;;;;;;5093580;28;20039;-71
2023/12/15 12:49:45;;;;;;;1.60;1.50;;;8.50;99.90;;;;;;5093824;28;20409;-71
2023/12/15 12:52:11;;;;;;;0.80;0.80;;;8.50;99.90;;;;;;5093866;28;20051;-71